createdAt,value
2019-02-19T00:00:39.450Z,64.80
2019-02-19T00:03:11.811Z,64.97
2019-02-19T00:05:43.491Z,64.83
2019-02-19T00:08:15.029Z,64.50
2019-02-19T00:10:46.566Z,64.29
2019-02-19T00:13:18.123Z,64.24
2019-02-19T00:15:49.777Z,64.45
2019-02-19T00:18:21.392Z,64.77
2019-02-19T00:20:52.995Z,65.02
2019-02-19T00:23:24.588Z,65.42
2019-02-19T00:25:56.203Z,65.48
2019-02-19T00:28:27.814Z,65.70
2019-02-19T00:30:59.558Z,65.79
2019-02-19T00:33:31.160Z,65.63
2019-02-19T00:36:02.696Z,65.73
2019-02-19T00:38:34.211Z,65.82
2019-02-19T00:41:05.810Z,65.84
2019-02-19T00:43:37.442Z,65.57
2019-02-19T00:46:09.041Z,65.45
2019-02-19T00:48:40.599Z,65.24
2019-02-19T00:51:12.119Z,65.21
2019-02-19T00:53:43.719Z,65.13
2019-02-19T00:56:15.300Z,65.19
2019-02-19T00:58:46.852Z,65.02
2019-02-19T01:01:18.456Z,64.76
2019-02-19T01:03:50.126Z,64.65
2019-02-19T01:06:21.727Z,64.84
2019-02-19T01:08:53.304Z,65.01
2019-02-19T01:11:24.839Z,65.25
2019-02-19T01:13:56.358Z,65.21
2019-02-19T01:16:27.971Z,65.13
2019-02-19T01:18:59.587Z,65.01
2019-02-19T01:21:31.338Z,65.04
2019-02-19T01:24:02.889Z,64.93
2019-02-19T01:26:34.437Z,64.86
2019-02-19T01:29:06.046Z,64.99
2019-02-19T01:31:38.047Z,65.12
2019-02-19T01:34:09.569Z,65.24
2019-02-19T01:36:41.100Z,65.19
2019-02-19T01:39:12.640Z,64.97
2019-02-19T01:41:44.233Z,65.14
2019-02-19T01:44:15.851Z,65.26
2019-02-19T01:46:47.405Z,65.35
2019-02-19T01:49:19.012Z,65.33
2019-02-19T01:51:50.620Z,65.43
2019-02-19T01:54:22.169Z,65.49
2019-02-19T01:56:53.736Z,65.38
2019-02-19T01:59:25.404Z,65.39
2019-02-19T02:01:57.485Z,65.41
2019-02-19T02:04:29.151Z,65.61
2019-02-19T02:07:00.686Z,65.49
2019-02-19T02:09:32.192Z,65.02
2019-02-19T02:12:03.805Z,65.09
2019-02-19T02:14:35.348Z,64.91
2019-02-19T02:17:06.954Z,64.88
2019-02-19T02:19:38.605Z,64.60
2019-02-19T02:22:10.187Z,64.84
2019-02-19T02:24:41.785Z,64.41
2019-02-19T02:27:13.339Z,64.61
2019-02-19T02:29:44.882Z,64.77
2019-02-19T02:32:17.029Z,64.79
2019-02-19T02:34:48.638Z,65.10
2019-02-19T02:37:20.298Z,65.49
2019-02-19T02:39:51.920Z,65.61
2019-02-19T02:42:23.452Z,65.68
2019-02-19T02:44:55.004Z,65.74
2019-02-19T02:47:26.554Z,65.48
2019-02-19T02:49:58.100Z,65.24
2019-02-19T02:52:29.611Z,64.99
2019-02-19T02:55:01.173Z,64.92
2019-02-19T02:57:32.773Z,65.01
2019-02-19T03:00:05.915Z,65.15
2019-02-19T03:02:38.501Z,64.91
2019-02-19T03:05:10.184Z,64.73
2019-02-19T03:07:43.389Z,64.85
2019-02-19T03:10:14.969Z,64.94
2019-02-19T03:12:46.509Z,64.68
2019-02-19T03:15:18.497Z,64.84
2019-02-19T03:17:50.504Z,64.82
2019-02-19T03:20:22.099Z,64.89
2019-02-19T03:22:54.691Z,64.83
2019-02-19T03:25:26.218Z,64.75
2019-02-19T03:27:57.834Z,64.75
2019-02-19T03:30:29.519Z,64.59
2019-02-19T03:33:01.513Z,64.33
2019-02-19T03:35:33.092Z,64.24
2019-02-19T03:38:04.594Z,64.48
2019-02-19T03:40:36.198Z,64.41
2019-02-19T03:43:07.813Z,64.32
2019-02-19T03:45:39.406Z,64.56
2019-02-19T03:48:11.134Z,64.59
2019-02-19T03:50:42.741Z,64.60
2019-02-19T03:53:15.436Z,64.51
2019-02-19T03:55:46.970Z,64.46
2019-02-19T03:58:18.582Z,64.33
2019-02-19T04:00:50.674Z,64.29
2019-02-19T04:03:23.274Z,64.15
2019-02-19T04:05:54.821Z,64.12
2019-02-19T04:08:26.495Z,64.22
2019-02-19T04:10:58.078Z,64.34
2019-02-19T04:13:29.687Z,64.29
2019-02-19T04:16:01.227Z,64.09
2019-02-19T04:18:33.260Z,64.39
2019-02-19T04:21:04.789Z,64.24
2019-02-19T04:23:36.425Z,64.34
2019-02-19T04:26:08.062Z,64.61
2019-02-19T04:28:39.658Z,64.69
2019-02-19T04:31:11.189Z,64.48
2019-02-19T04:33:43.328Z,64.47
2019-02-19T04:36:14.985Z,64.39
2019-02-19T04:38:46.561Z,64.24
2019-02-19T04:41:18.239Z,64.29
2019-02-19T04:43:49.902Z,64.33
2019-02-19T04:46:31.259Z,64.28
2019-02-19T04:48:57.375Z,64.01
2019-02-19T04:51:29.055Z,64.06
2019-02-19T04:54:00.592Z,64.49
2019-02-19T04:56:32.187Z,65.01
2019-02-19T04:59:03.744Z,64.78
2019-02-19T05:01:35.359Z,64.71
2019-02-19T05:04:07.475Z,64.68
2019-02-19T05:06:39.074Z,64.57
2019-02-19T05:09:10.681Z,64.58
2019-02-19T05:11:42.287Z,64.43
2019-02-19T05:14:13.909Z,64.01
2019-02-19T05:16:45.408Z,65.20
2019-02-19T05:19:17.751Z,65.61
2019-02-19T05:21:49.284Z,65.36
2019-02-19T05:24:20.868Z,65.26
2019-02-19T05:26:52.465Z,65.08
2019-02-19T05:29:24.097Z,64.75
2019-02-19T05:31:55.621Z,64.78
2019-02-19T05:34:27.375Z,64.42
2019-02-19T05:36:58.955Z,64.70
2019-02-19T05:39:30.482Z,64.63
2019-02-19T05:42:02.015Z,64.67
2019-02-19T05:44:33.685Z,64.74
2019-02-19T05:47:05.770Z,64.80
2019-02-19T05:49:37.353Z,64.73
2019-02-19T05:52:09.142Z,64.61
2019-02-19T05:54:40.668Z,64.48
2019-02-19T05:57:12.345Z,64.17
2019-02-19T05:59:43.946Z,63.96
2019-02-19T06:02:15.477Z,64.05
2019-02-19T06:04:47.073Z,64.18
2019-02-19T06:07:18.632Z,64.07
2019-02-19T06:09:50.183Z,64.05
2019-02-19T06:12:21.707Z,63.78
2019-02-19T06:14:53.295Z,63.66
2019-02-19T06:17:24.958Z,63.57
2019-02-19T06:19:56.512Z,63.48
2019-02-19T06:22:28.021Z,63.22
2019-02-19T06:25:00.624Z,63.12
2019-02-19T06:27:33.752Z,63.28
2019-02-19T06:30:12.181Z,63.45
2019-02-19T06:32:43.719Z,63.44
2019-02-19T06:35:15.335Z,63.59
2019-02-19T06:37:47.372Z,63.68
2019-02-19T06:40:29.982Z,63.43
2019-02-19T06:43:01.643Z,63.17
2019-02-19T06:45:33.263Z,63.10
2019-02-19T06:48:04.794Z,63.17
2019-02-19T06:50:36.376Z,62.32
2019-02-19T06:53:07.965Z,61.81
2019-02-19T06:55:39.562Z,60.99
2019-02-19T06:58:11.306Z,60.65
2019-02-19T07:00:42.836Z,59.82
2019-02-19T07:03:16.054Z,59.58
2019-02-19T07:05:48.099Z,58.69
2019-02-19T07:08:19.616Z,58.30
2019-02-19T07:10:51.163Z,57.77
2019-02-19T07:13:23.122Z,57.16
2019-02-19T07:15:54.799Z,56.90
2019-02-19T07:18:26.372Z,56.76
2019-02-19T07:20:58.692Z,56.67
2019-02-19T07:23:30.375Z,56.38
2019-02-19T07:26:01.876Z,56.33
2019-02-19T07:28:33.539Z,55.83
2019-02-19T07:31:05.129Z,55.68
2019-02-19T07:33:36.655Z,55.98
2019-02-19T07:36:08.291Z,55.59
2019-02-19T07:38:39.799Z,56.00
2019-02-19T07:41:11.389Z,56.11
2019-02-19T07:43:42.992Z,55.50
2019-02-19T07:46:14.594Z,55.61
2019-02-19T07:48:46.212Z,55.09
2019-02-19T07:51:18.359Z,54.77
2019-02-19T07:53:49.973Z,54.43
2019-02-19T07:56:21.650Z,55.12
2019-02-19T07:58:53.257Z,54.39
2019-02-19T08:01:24.803Z,53.59
2019-02-19T08:03:56.468Z,53.38
2019-02-19T08:06:28.425Z,53.60
2019-02-19T08:09:00.031Z,52.73
2019-02-19T08:11:31.656Z,52.54
2019-02-19T08:14:03.331Z,52.54
2019-02-19T08:16:35.930Z,51.96
2019-02-19T08:19:07.462Z,51.84
2019-02-19T08:21:39.818Z,51.46
2019-02-19T08:24:11.443Z,51.41
2019-02-19T08:26:43.133Z,51.33
2019-02-19T08:29:14.659Z,51.11
2019-02-19T08:31:46.205Z,50.87
2019-02-19T08:34:17.883Z,51.04
2019-02-19T08:36:50.177Z,50.72
2019-02-19T08:39:21.714Z,50.88
2019-02-19T08:41:53.363Z,51.27
2019-02-19T08:44:24.979Z,51.19
2019-02-19T08:46:56.641Z,51.59
2019-02-19T08:49:28.188Z,51.62
2019-02-19T08:51:59.946Z,50.97
2019-02-19T08:54:31.655Z,50.79
2019-02-19T08:57:03.165Z,50.44
2019-02-19T08:59:34.935Z,50.09
2019-02-19T09:02:06.474Z,49.20
2019-02-19T09:04:38.601Z,49.57
2019-02-19T09:07:10.313Z,48.91
2019-02-19T09:09:43.705Z,49.39
2019-02-19T09:12:15.243Z,48.91
2019-02-19T09:14:46.846Z,48.93
2019-02-19T09:17:18.374Z,48.77
2019-02-19T09:19:49.898Z,49.03
2019-02-19T09:22:21.814Z,48.45
2019-02-19T09:24:53.353Z,48.55
2019-02-19T09:27:24.908Z,48.44
2019-02-19T09:29:56.557Z,48.51
2019-02-19T09:32:28.114Z,48.56
2019-02-19T09:34:59.640Z,48.27
2019-02-19T09:37:31.449Z,48.09
2019-02-19T09:40:03.673Z,48.01
2019-02-19T09:42:35.355Z,48.02
2019-02-19T09:45:10.152Z,47.47
2019-02-19T09:47:41.738Z,47.85
2019-02-19T09:50:13.735Z,48.14
2019-02-19T09:52:45.507Z,48.03
2019-02-19T09:55:17.084Z,47.80
2019-02-19T09:57:48.744Z,47.74
2019-02-19T10:00:20.314Z,47.74
2019-02-19T10:02:52.382Z,47.92
2019-02-19T10:05:23.915Z,48.14
2019-02-19T10:07:55.961Z,48.32
2019-02-19T10:10:27.646Z,48.40
2019-02-19T10:12:59.189Z,48.14
2019-02-19T10:15:30.799Z,48.07
2019-02-19T10:18:09.917Z,47.69
2019-02-19T10:20:35.661Z,47.63
2019-02-19T10:23:07.491Z,47.94
2019-02-19T10:25:39.099Z,47.25
2019-02-19T10:28:10.661Z,46.70
2019-02-19T10:30:42.199Z,46.53
2019-02-19T10:33:13.803Z,46.59
2019-02-19T10:35:45.344Z,46.37
2019-02-19T10:38:17.304Z,46.34
2019-02-19T10:40:48.987Z,46.39
2019-02-19T10:43:20.539Z,45.92
2019-02-19T10:45:52.055Z,45.56
2019-02-19T10:48:23.668Z,45.58
2019-02-19T10:50:55.305Z,45.71
2019-02-19T10:53:27.048Z,45.46
2019-02-19T10:55:58.607Z,45.20
2019-02-19T10:58:30.154Z,45.23
2019-02-19T11:01:01.693Z,45.44
2019-02-19T11:03:33.875Z,45.53
2019-02-19T11:06:05.415Z,46.01
2019-02-19T11:08:37.217Z,46.09
2019-02-19T11:11:08.785Z,46.21
2019-02-19T11:13:40.324Z,46.04
2019-02-19T11:16:11.887Z,45.83
2019-02-19T11:18:43.900Z,45.32
2019-02-19T11:21:19.525Z,45.30
2019-02-19T11:23:49.218Z,45.52
2019-02-19T11:26:20.798Z,46.04
2019-02-19T11:28:52.312Z,45.96
2019-02-19T11:31:23.836Z,45.58
2019-02-19T11:33:55.561Z,46.02
2019-02-19T11:36:27.101Z,45.66
2019-02-19T11:38:58.651Z,45.86
2019-02-19T11:41:30.386Z,45.63
2019-02-19T11:44:02.701Z,45.86
2019-02-19T11:46:34.405Z,45.97
2019-02-19T11:49:06.016Z,46.20
2019-02-19T11:51:37.717Z,45.75
2019-02-19T11:54:09.527Z,45.98
2019-02-19T11:56:41.046Z,45.76
2019-02-19T11:59:12.582Z,45.65
2019-02-19T12:01:44.650Z,46.16
2019-02-19T12:04:16.248Z,45.95
2019-02-19T12:06:47.939Z,45.67
2019-02-19T12:09:19.487Z,45.69
2019-02-19T12:11:50.990Z,45.66
2019-02-19T12:14:22.975Z,45.54
2019-02-19T12:16:54.625Z,45.88
2019-02-19T12:19:26.165Z,45.88
2019-02-19T12:21:57.696Z,46.05
2019-02-19T12:24:29.374Z,45.96
2019-02-19T12:27:00.918Z,45.61
2019-02-19T12:29:33.041Z,45.85
2019-02-19T12:32:04.627Z,45.57
2019-02-19T12:34:36.137Z,46.34
2019-02-19T12:37:07.669Z,46.48
2019-02-19T12:39:39.283Z,46.52
2019-02-19T12:42:10.910Z,46.57
2019-02-19T12:44:42.973Z,46.10
2019-02-19T12:47:14.601Z,46.18
2019-02-19T12:49:46.194Z,46.08
2019-02-19T12:52:17.851Z,45.83
2019-02-19T12:54:49.386Z,46.27
2019-02-19T12:57:21.063Z,46.84
2019-02-19T12:59:56.564Z,46.91
2019-02-19T13:02:27.061Z,46.91
2019-02-19T13:04:58.656Z,47.49
2019-02-19T13:07:30.266Z,47.20
2019-02-19T13:10:01.809Z,47.43
2019-02-19T13:12:33.402Z,47.63
2019-02-19T13:15:07.458Z,47.80
2019-02-19T13:17:39.071Z,48.02
2019-02-19T13:20:14.051Z,48.72
2019-02-19T13:22:45.701Z,48.89
2019-02-19T13:25:17.395Z,48.73
2019-02-19T13:27:49.017Z,49.38
2019-02-19T13:30:22.246Z,49.90
2019-02-19T13:32:53.776Z,50.14
2019-02-19T13:35:25.363Z,50.97
2019-02-19T13:37:56.928Z,51.09
2019-02-19T13:40:28.470Z,51.55
2019-02-19T13:43:00.087Z,51.38
2019-02-19T13:45:31.661Z,51.99
2019-02-19T13:48:05.814Z,52.30
2019-02-19T13:50:36.489Z,52.78
2019-02-19T13:53:08.333Z,52.87
2019-02-19T13:55:44.630Z,52.54
2019-02-19T13:58:16.205Z,52.85
2019-02-19T14:00:51.221Z,52.87
2019-02-19T14:03:22.819Z,52.87
2019-02-19T14:05:55.009Z,53.25
2019-02-19T14:08:26.584Z,53.08
2019-02-19T14:10:58.219Z,53.76
2019-02-19T14:13:29.731Z,54.47
2019-02-19T14:16:05.942Z,53.84
2019-02-19T14:18:55.508Z,53.76
2019-02-19T14:21:45.130Z,54.12
2019-02-19T14:24:27.566Z,53.89
2019-02-19T14:26:58.875Z,55.80
2019-02-19T14:29:38.114Z,56.67
2019-02-19T14:32:18.311Z,57.58
2019-02-19T14:34:57.062Z,57.89
2019-02-19T14:37:34.152Z,58.41
2019-02-19T14:40:25.934Z,57.77
2019-02-19T14:42:59.556Z,58.32
2019-02-19T14:45:32.741Z,58.68
2019-02-19T14:48:06.861Z,58.05
2019-02-19T14:50:49.681Z,58.36
2019-02-19T14:53:37.974Z,58.98
2019-02-19T14:56:11.211Z,58.25
2019-02-19T14:58:48.807Z,57.63
2019-02-19T15:01:22.874Z,57.40
2019-02-19T15:04:11.320Z,57.08
2019-02-19T15:06:56.873Z,56.74
2019-02-19T15:09:30.057Z,56.65
2019-02-19T15:12:03.386Z,56.48
2019-02-19T15:14:39.622Z,56.13
2019-02-19T15:17:24.833Z,55.97
2019-02-19T15:20:14.330Z,55.83
2019-02-19T15:22:56.323Z,55.76
2019-02-19T15:25:41.695Z,56.13
2019-02-19T15:28:14.900Z,56.08
2019-02-19T15:30:48.931Z,56.20
2019-02-19T15:33:32.499Z,55.95
2019-02-19T15:36:11.778Z,56.43
2019-02-19T15:38:48.078Z,56.85
2019-02-19T15:41:33.704Z,56.92
2019-02-19T15:44:06.878Z,56.78
2019-02-19T15:46:40.626Z,57.45
2019-02-19T15:49:30.097Z,57.14
2019-02-19T15:52:06.572Z,57.08
2019-02-19T15:54:58.279Z,56.91
2019-02-19T15:57:37.630Z,56.86
2019-02-19T16:00:27.820Z,56.80
2019-02-19T16:03:04.327Z,56.79
2019-02-19T16:05:44.899Z,57.23
2019-02-19T16:08:30.088Z,57.35
2019-02-19T16:11:09.967Z,57.26
2019-02-19T16:14:00.068Z,56.99
2019-02-19T16:16:48.304Z,57.31
2019-02-19T16:19:28.409Z,56.98
2019-02-19T16:22:02.908Z,56.75
2019-02-19T16:24:45.581Z,56.87
2019-02-19T16:27:32.044Z,56.76
2019-02-19T16:30:11.672Z,57.03
2019-02-19T16:32:51.017Z,56.71
2019-02-19T16:35:25.515Z,56.46
2019-02-19T16:37:56.834Z,56.68
2019-02-19T16:40:31.203Z,56.70
2019-02-19T16:43:02.745Z,56.66
2019-02-19T16:45:38.819Z,56.57
2019-02-19T16:48:28.417Z,56.63
2019-02-19T16:51:16.462Z,56.59
2019-02-19T16:54:25.486Z,56.67
2019-02-19T16:57:15.455Z,56.74
2019-02-19T17:00:29.983Z,56.70
2019-02-19T17:03:20.062Z,56.70
2019-02-19T17:09:11.103Z,56.58
2019-02-19T17:12:00.161Z,56.65
2019-02-19T17:14:36.436Z,56.90
2019-02-19T17:17:09.724Z,56.92
2019-02-19T17:19:52.241Z,57.58
2019-02-19T17:22:38.147Z,57.38
2019-02-19T17:25:14.162Z,57.77
2019-02-19T17:28:03.410Z,57.86
2019-02-19T17:30:36.604Z,57.88
2019-02-19T17:33:10.553Z,57.94
2019-02-19T17:36:00.836Z,57.62
2019-02-19T17:38:43.183Z,57.83
2019-02-19T17:41:25.202Z,57.70
2019-02-19T17:44:13.476Z,57.71
2019-02-19T17:47:04.889Z,57.84
2019-02-19T17:49:44.030Z,58.36
2019-02-19T17:52:19.743Z,58.27
2019-02-19T17:54:55.633Z,58.36
2019-02-19T17:57:30.081Z,58.34
2019-02-19T18:00:03.330Z,58.14
2019-02-19T18:02:42.551Z,58.11
2019-02-19T18:05:15.837Z,58.16
2019-02-19T18:07:52.841Z,58.43
2019-02-19T18:10:28.717Z,58.73
2019-02-19T18:13:14.301Z,59.12
2019-02-19T18:15:54.515Z,59.18
2019-02-19T18:18:44.606Z,58.82
2019-02-19T18:21:16.197Z,59.23
2019-02-19T18:23:47.879Z,59.38
2019-02-19T18:26:19.387Z,59.08
2019-02-19T18:28:50.960Z,58.55
2019-02-19T18:31:22.590Z,58.57
2019-02-19T18:33:54.646Z,58.86
2019-02-19T18:36:26.181Z,58.72
2019-02-19T18:38:57.762Z,58.84
2019-02-19T18:41:29.316Z,58.68
2019-02-19T18:44:00.909Z,58.44
2019-02-19T18:46:32.438Z,58.29
2019-02-19T18:49:04.562Z,58.47
2019-02-19T18:51:36.173Z,58.79
2019-02-19T18:54:07.819Z,59.24
2019-02-19T18:56:40.634Z,59.59
2019-02-19T18:59:12.221Z,59.25
2019-02-19T19:01:43.834Z,59.08
2019-02-19T19:04:15.860Z,59.23
2019-02-19T19:06:47.722Z,58.98
2019-02-19T19:09:19.265Z,58.98
2019-02-19T19:11:50.890Z,59.62
2019-02-19T19:14:22.565Z,59.87
2019-02-19T19:16:54.550Z,59.47
2019-02-19T19:19:26.626Z,59.00
2019-02-19T19:21:58.259Z,59.32
2019-02-19T19:24:29.907Z,59.49
2019-02-19T19:27:01.542Z,59.55
2019-02-19T19:29:33.220Z,59.27
2019-02-19T19:32:04.910Z,59.14
2019-02-19T19:34:37.036Z,59.35
2019-02-19T19:37:08.738Z,59.36
2019-02-19T19:39:40.519Z,59.19
2019-02-19T19:42:12.067Z,59.30
2019-02-19T19:44:43.617Z,59.70
2019-02-19T19:47:15.133Z,60.04
2019-02-19T19:49:46.674Z,59.84
2019-02-19T19:52:18.230Z,59.98
2019-02-19T19:54:50.876Z,59.98
2019-02-19T19:57:22.388Z,60.05
2019-02-19T19:59:53.975Z,59.85
2019-02-19T20:02:25.493Z,59.77
2019-02-19T20:04:57.280Z,60.24
2019-02-19T20:07:28.794Z,60.25
2019-02-19T20:10:01.297Z,60.78
2019-02-19T20:12:34.530Z,60.76
2019-02-19T20:15:12.063Z,60.20
2019-02-19T20:17:43.708Z,60.19
2019-02-19T20:20:15.254Z,60.32
2019-02-19T20:22:46.845Z,60.28
2019-02-19T20:25:18.493Z,60.22
2019-02-19T20:27:50.124Z,60.40
2019-02-19T20:30:21.651Z,60.90
2019-02-19T20:32:53.293Z,61.17
2019-02-19T20:35:24.897Z,61.47
2019-02-19T20:37:56.506Z,61.70
2019-02-19T20:40:28.160Z,61.78
2019-02-19T20:42:59.665Z,61.35
2019-02-19T20:45:31.393Z,61.63
2019-02-19T20:48:03.049Z,61.96
2019-02-19T20:50:35.774Z,62.23
2019-02-19T20:53:07.318Z,62.35
2019-02-19T20:55:39.758Z,61.84
2019-02-19T20:58:11.645Z,61.94
2019-02-19T21:00:43.289Z,62.10
2019-02-19T21:03:15.018Z,62.11
2019-02-19T21:05:46.587Z,61.81
2019-02-19T21:08:18.255Z,61.59
2019-02-19T21:10:49.989Z,61.29
2019-02-19T21:13:21.756Z,61.41
2019-02-19T21:15:53.366Z,62.03
2019-02-19T21:18:25.046Z,62.06
2019-02-19T21:20:57.185Z,62.40
2019-02-19T21:23:28.884Z,61.97
2019-02-19T21:26:00.681Z,61.58
2019-02-19T21:28:32.279Z,61.83
2019-02-19T21:31:03.978Z,61.84
2019-02-19T21:33:35.662Z,61.73
2019-02-19T21:36:07.306Z,61.72
2019-02-19T21:38:38.972Z,61.83
2019-02-19T21:41:10.508Z,62.23
2019-02-19T21:43:42.206Z,61.95
2019-02-19T21:46:13.914Z,61.80
2019-02-19T21:48:48.189Z,62.00
2019-02-19T21:51:19.370Z,61.75
2019-02-19T21:53:50.996Z,61.41
2019-02-19T21:56:22.709Z,61.27
2019-02-19T21:58:54.631Z,61.29
2019-02-19T22:01:26.345Z,61.29
2019-02-19T22:03:59.286Z,61.44
2019-02-19T22:06:31.426Z,61.54
2019-02-19T22:09:03.229Z,60.88
2019-02-19T22:11:36.455Z,60.15
2019-02-19T22:14:09.078Z,59.81
2019-02-19T22:16:40.615Z,60.09
2019-02-19T22:19:12.217Z,59.76
2019-02-19T22:21:51.687Z,59.37
2019-02-19T22:24:35.842Z,59.52
2019-02-19T22:27:07.451Z,59.71
2019-02-19T22:29:39.272Z,60.15
2019-02-19T22:32:11.910Z,60.65
2019-02-19T22:34:43.462Z,60.95
2019-02-19T22:37:15.438Z,61.18
2019-02-19T22:39:47.458Z,61.57
2019-02-19T22:42:19.142Z,62.45
2019-02-19T22:44:50.732Z,63.45
2019-02-19T22:47:22.354Z,64.08
2019-02-19T22:49:53.891Z,64.30
2019-02-19T22:52:25.903Z,64.35
2019-02-19T22:55:10.999Z,65.17
2019-02-19T22:57:42.682Z,65.28
2019-02-19T23:00:45.885Z,65.38
2019-02-19T23:03:19.616Z,65.45
2019-02-19T23:05:52.266Z,65.54
2019-02-19T23:08:23.949Z,64.91
2019-02-19T23:10:55.552Z,64.86
2019-02-19T23:13:27.068Z,64.79
2019-02-19T23:15:58.705Z,64.52
2019-02-19T23:18:30.387Z,64.69
2019-02-19T23:21:01.930Z,64.99
2019-02-19T23:23:33.516Z,65.16
2019-02-19T23:26:05.181Z,64.97
2019-02-19T23:28:36.824Z,65.11
2019-02-19T23:31:08.505Z,65.14
2019-02-19T23:33:40.034Z,65.68
2019-02-19T23:36:13.342Z,66.38
2019-02-19T23:38:44.943Z,65.86
2019-02-19T23:41:16.444Z,65.64
2019-02-19T23:43:48.499Z,65.95
2019-02-19T23:46:20.074Z,65.92
2019-02-19T23:48:51.669Z,65.99
2019-02-19T23:51:23.268Z,66.24
2019-02-19T23:53:54.937Z,66.67
2019-02-19T23:56:26.543Z,66.90
2019-02-19T23:58:58.585Z,66.40
